createdAt,value
2022-07-26T00:02:18.602Z,22.45
2022-07-26T00:04:44.941Z,22.30
2022-07-26T00:07:10.982Z,26.65
2022-07-26T00:09:37.064Z,24.10
2022-07-26T00:12:03.430Z,20.08
2022-07-26T00:14:29.763Z,25.48
2022-07-26T00:16:55.958Z,22.98
2022-07-26T00:19:22.045Z,27.23
2022-07-26T00:22:08.105Z,16.85
2022-07-26T00:24:35.566Z,25.83
2022-07-26T00:27:01.899Z,28.00
2022-07-26T00:29:27.987Z,28.33
2022-07-26T00:31:54.284Z,28.40
2022-07-26T00:34:20.502Z,29.92
2022-07-26T00:36:46.602Z,27.42
2022-07-26T00:39:12.688Z,24.83
2022-07-26T00:41:38.787Z,19.90
2022-07-26T00:44:05.214Z,21.85
2022-07-26T00:46:31.384Z,21.73
2022-07-26T00:48:57.612Z,30.30
2022-07-26T00:51:23.840Z,24.38
2022-07-26T00:53:50.455Z,22.20
2022-07-26T00:56:17.147Z,30.63
2022-07-26T00:58:43.533Z,26.85
2022-07-26T01:01:11.114Z,27.25
2022-07-26T01:03:39.639Z,23.25
2022-07-26T01:06:06.279Z,22.58
2022-07-26T01:08:33.661Z,20.15
2022-07-26T01:10:59.785Z,27.33
2022-07-26T01:13:25.999Z,19.23
2022-07-26T01:15:52.265Z,23.90
2022-07-26T01:18:18.344Z,15.13
2022-07-26T01:20:45.111Z,13.88
2022-07-26T01:23:11.658Z,22.15
2022-07-26T01:25:42.342Z,17.23
2022-07-26T01:28:12.056Z,16.77
2022-07-26T01:30:46.720Z,17.10
2022-07-26T01:33:12.821Z,20.25
2022-07-26T01:35:38.909Z,16.10
2022-07-26T01:38:05.007Z,14.52
2022-07-26T01:40:31.072Z,13.02
2022-07-26T01:42:57.282Z,16.80
2022-07-26T01:45:23.869Z,15.35
2022-07-26T01:47:50.036Z,17.75
2022-07-26T01:50:17.202Z,11.38
2022-07-26T01:52:43.923Z,13.80
2022-07-26T01:55:10.626Z,9.10
2022-07-26T01:57:36.873Z,11.00
2022-07-26T02:00:04.461Z,12.27
2022-07-26T02:02:34.085Z,10.75
2022-07-26T02:05:01.491Z,11.55
2022-07-26T02:07:32.833Z,8.90
2022-07-26T02:09:59.708Z,15.75
2022-07-26T02:12:25.893Z,8.48
2022-07-26T02:14:52.189Z,4.95
2022-07-26T02:17:18.345Z,9.20
2022-07-26T02:19:44.623Z,7.78
2022-07-26T02:22:12.511Z,5.88
2022-07-26T02:24:39.000Z,9.50
2022-07-26T02:27:05.424Z,14.82
2022-07-26T02:29:31.745Z,6.50
2022-07-26T02:31:58.263Z,8.45
2022-07-26T02:34:25.001Z,4.88
2022-07-26T02:36:51.457Z,6.32
2022-07-26T02:39:17.678Z,8.80
2022-07-26T02:41:43.781Z,9.35
2022-07-26T02:44:10.440Z,4.13
2022-07-26T02:46:37.447Z,8.70
2022-07-26T02:49:03.917Z,5.22
2022-07-26T02:51:30.015Z,10.52
2022-07-26T02:53:56.100Z,9.23
2022-07-26T02:56:22.198Z,7.65
2022-07-26T02:58:48.290Z,8.25
2022-07-26T03:01:14.678Z,11.57
2022-07-26T03:03:48.706Z,9.57
2022-07-26T03:06:17.697Z,5.70
2022-07-26T03:08:43.761Z,10.00
2022-07-26T03:11:12.146Z,9.15
2022-07-26T03:13:38.690Z,9.30
2022-07-26T03:16:06.044Z,8.93
2022-07-26T03:18:32.163Z,9.95
2022-07-26T03:20:58.276Z,8.32
2022-07-26T03:23:24.546Z,8.68
2022-07-26T03:25:50.673Z,11.70
2022-07-26T03:28:19.486Z,10.38
2022-07-26T03:30:45.894Z,10.30
2022-07-26T03:33:12.021Z,9.57
2022-07-26T03:35:38.196Z,11.77
2022-07-26T03:38:06.747Z,8.43
2022-07-26T03:40:32.879Z,7.80
2022-07-26T03:42:59.315Z,8.65
2022-07-26T03:45:25.514Z,6.75
2022-07-26T03:47:52.778Z,13.43
2022-07-26T03:50:19.245Z,9.75
2022-07-26T03:52:45.474Z,10.70
2022-07-26T03:55:30.014Z,5.35
2022-07-26T03:57:56.481Z,7.78
2022-07-26T04:00:22.613Z,7.43
2022-07-26T04:02:48.740Z,10.02
2022-07-26T04:05:15.010Z,9.70
2022-07-26T04:07:52.814Z,7.32
2022-07-26T04:10:20.566Z,5.72
2022-07-26T04:12:46.724Z,13.60
2022-07-26T04:15:12.794Z,8.18
2022-07-26T04:17:40.420Z,4.53
2022-07-26T04:20:07.969Z,10.43
2022-07-26T04:22:35.233Z,9.25
2022-07-26T04:25:02.313Z,9.95
2022-07-26T04:27:28.486Z,9.70
2022-07-26T04:29:54.829Z,9.10
2022-07-26T04:32:21.164Z,10.32
2022-07-26T04:34:47.407Z,7.78
2022-07-26T04:37:13.461Z,6.50
2022-07-26T04:39:39.551Z,11.50
2022-07-26T04:42:05.929Z,8.10
2022-07-26T04:44:32.412Z,13.90
2022-07-26T04:46:58.466Z,9.32
2022-07-26T04:49:24.696Z,6.60
2022-07-26T04:51:50.751Z,10.23
2022-07-26T04:54:20.140Z,13.10
2022-07-26T04:56:46.944Z,15.30
2022-07-26T04:59:14.093Z,5.95
2022-07-26T05:01:42.583Z,11.98
2022-07-26T05:04:09.555Z,9.75
2022-07-26T05:06:36.129Z,9.63
2022-07-26T05:09:02.638Z,13.07
2022-07-26T05:11:28.848Z,9.55
2022-07-26T05:13:55.072Z,5.35
2022-07-26T05:16:21.201Z,12.02
2022-07-26T05:18:49.512Z,7.88
2022-07-26T05:21:16.772Z,15.05
2022-07-26T05:23:43.828Z,12.40
2022-07-26T05:26:11.434Z,9.52
2022-07-26T05:28:40.724Z,8.32
2022-07-26T05:31:07.124Z,22.80
2022-07-26T05:33:33.271Z,10.80
2022-07-26T05:35:59.316Z,5.40
2022-07-26T05:38:25.439Z,4.28
2022-07-26T05:40:51.630Z,8.23
2022-07-26T05:43:18.154Z,5.88
2022-07-26T05:45:44.234Z,8.52
2022-07-26T05:48:10.642Z,9.05
2022-07-26T05:50:36.777Z,5.57
2022-07-26T05:53:02.853Z,8.88
2022-07-26T05:55:28.964Z,3.40
2022-07-26T05:57:55.066Z,7.07
2022-07-26T06:00:21.252Z,9.80
2022-07-26T06:02:47.481Z,5.50
2022-07-26T06:05:15.213Z,5.70
2022-07-26T06:07:41.314Z,15.68
2022-07-26T06:10:07.803Z,14.93
2022-07-26T06:12:33.879Z,13.07
2022-07-26T06:14:59.937Z,6.82
2022-07-26T06:17:29.361Z,6.40
2022-07-26T06:19:56.790Z,12.52
2022-07-26T06:22:22.816Z,6.95
2022-07-26T06:24:48.985Z,7.65
2022-07-26T06:27:15.162Z,8.00
2022-07-26T06:29:41.332Z,26.30
2022-07-26T06:32:07.472Z,14.95
2022-07-26T06:34:33.745Z,7.70
2022-07-26T06:36:59.984Z,9.93
2022-07-26T06:39:26.386Z,10.48
2022-07-26T06:41:52.501Z,13.30
2022-07-26T06:44:18.610Z,7.97
2022-07-26T06:46:45.324Z,6.97
2022-07-26T06:49:13.412Z,6.40
2022-07-26T06:51:39.646Z,10.25
2022-07-26T06:54:06.148Z,6.55
2022-07-26T06:56:32.595Z,11.27
2022-07-26T06:58:58.788Z,12.63
2022-07-26T07:01:57.811Z,13.20
2022-07-26T07:04:11.594Z,8.40
2022-07-26T07:06:38.031Z,3.95
2022-07-26T07:09:04.367Z,5.05
2022-07-26T07:11:34.766Z,8.48
2022-07-26T07:14:02.586Z,5.47
2022-07-26T07:16:28.836Z,9.82
2022-07-26T07:18:55.062Z,7.40
2022-07-26T07:21:21.156Z,12.73
2022-07-26T07:23:47.269Z,10.05
2022-07-26T07:26:13.327Z,9.18
2022-07-26T07:28:39.436Z,11.98
2022-07-26T07:31:05.968Z,6.68
2022-07-26T07:33:36.684Z,6.53
2022-07-26T07:36:17.061Z,9.63
2022-07-26T07:38:47.534Z,5.43
2022-07-26T07:41:13.886Z,6.97
2022-07-26T07:43:40.701Z,4.55
2022-07-26T07:46:06.917Z,6.35
2022-07-26T07:48:33.152Z,5.28
2022-07-26T07:50:59.431Z,5.53
2022-07-26T07:53:25.845Z,4.10
2022-07-26T07:55:52.669Z,5.63
2022-07-26T07:58:21.706Z,7.38
2022-07-26T08:00:48.297Z,7.65
2022-07-26T08:03:17.867Z,5.72
2022-07-26T08:05:45.858Z,6.10
2022-07-26T08:08:11.979Z,7.85
2022-07-26T08:10:51.510Z,4.20
2022-07-26T08:13:21.304Z,4.75
2022-07-26T08:15:52.328Z,4.15
2022-07-26T08:18:22.897Z,4.15
2022-07-26T08:20:51.705Z,7.30
2022-07-26T08:23:18.532Z,4.43
2022-07-26T08:25:55.605Z,2.38
2022-07-26T08:28:38.154Z,6.35
2022-07-26T08:31:09.820Z,4.43
2022-07-26T08:33:36.102Z,4.75
2022-07-26T08:36:06.804Z,3.85
2022-07-26T08:38:32.958Z,3.67
2022-07-26T08:40:59.667Z,4.75
2022-07-26T08:43:26.361Z,2.78
2022-07-26T08:46:01.593Z,1.77
2022-07-26T08:48:28.842Z,6.50
2022-07-26T08:50:55.545Z,4.22
2022-07-26T08:53:23.281Z,5.13
2022-07-26T08:58:35.827Z,7.93
2022-07-26T09:01:08.254Z,5.47
2022-07-26T09:03:38.675Z,7.88
2022-07-26T09:06:19.478Z,1.90
2022-07-26T09:08:49.127Z,3.25
2022-07-26T09:11:35.517Z,6.25
2022-07-26T09:14:04.611Z,5.40
2022-07-26T09:16:34.978Z,5.15
2022-07-26T09:19:18.923Z,9.45
2022-07-26T09:21:45.898Z,3.88
2022-07-26T09:24:12.429Z,6.60
2022-07-26T09:26:38.669Z,5.53
2022-07-26T09:29:11.039Z,10.95
2022-07-26T09:31:38.908Z,4.40
2022-07-26T09:34:07.031Z,5.15
2022-07-26T09:36:48.899Z,8.82
2022-07-26T09:39:15.420Z,4.50
2022-07-26T09:41:41.545Z,6.80
2022-07-26T09:44:22.358Z,5.47
2022-07-26T09:46:57.390Z,7.05
2022-07-26T09:51:54.876Z,8.40
2022-07-26T09:54:33.662Z,5.28
2022-07-26T09:57:01.658Z,6.82
2022-07-26T09:59:29.305Z,5.00
2022-07-26T10:01:58.743Z,8.38
2022-07-26T10:04:26.459Z,6.95
2022-07-26T10:06:54.278Z,9.32
2022-07-26T10:09:25.469Z,6.88
2022-07-26T10:12:06.171Z,5.32
2022-07-26T10:14:33.046Z,4.82
2022-07-26T10:17:30.849Z,4.80
2022-07-26T10:20:03.546Z,4.93
2022-07-26T10:22:35.871Z,3.75
2022-07-26T10:25:17.951Z,7.47
2022-07-26T10:27:51.068Z,5.40
2022-07-26T10:30:23.972Z,3.25
2022-07-26T10:33:12.627Z,4.75
2022-07-26T10:35:43.886Z,3.08
2022-07-26T10:40:39.503Z,6.13
2022-07-26T10:46:15.724Z,4.95
2022-07-26T10:49:04.089Z,7.63
2022-07-26T10:51:36.637Z,10.77
2022-07-26T10:54:05.108Z,8.65
2022-07-26T10:56:33.636Z,3.55
2022-07-26T10:59:00.971Z,6.15
2022-07-26T11:01:37.425Z,4.97
2022-07-26T11:04:05.031Z,9.40
2022-07-26T11:06:32.203Z,6.57
2022-07-26T11:09:08.548Z,8.02
2022-07-26T11:11:34.719Z,9.90
2022-07-26T11:14:10.279Z,7.05
2022-07-26T11:16:49.667Z,7.65
2022-07-26T11:19:21.169Z,5.22
2022-07-26T11:21:54.285Z,5.47
2022-07-26T11:24:21.740Z,7.60
2022-07-26T11:26:47.986Z,6.72
2022-07-26T11:29:17.622Z,5.53
2022-07-26T11:31:59.950Z,9.00
2022-07-26T11:34:33.468Z,6.55
2022-07-26T11:37:02.254Z,6.70
2022-07-26T11:39:33.901Z,10.20
2022-07-26T11:42:04.379Z,6.30
2022-07-26T11:44:31.402Z,7.80
2022-07-26T11:46:58.586Z,11.98
2022-07-26T11:49:52.354Z,8.27
2022-07-26T11:52:13.626Z,6.00
2022-07-26T11:54:47.704Z,7.20
2022-07-26T11:57:14.764Z,9.93
2022-07-26T11:59:43.303Z,10.70
2022-07-26T12:02:09.791Z,10.00
2022-07-26T12:04:38.918Z,9.13
2022-07-26T12:07:13.414Z,8.55
2022-07-26T12:09:42.961Z,12.32
2022-07-26T12:12:18.865Z,10.55
2022-07-26T12:15:00.167Z,7.38
2022-07-26T12:17:27.283Z,12.23
2022-07-26T12:20:17.407Z,5.43
2022-07-26T12:23:05.308Z,10.77
2022-07-26T12:25:32.152Z,12.20
2022-07-26T12:27:58.484Z,6.28
2022-07-26T12:30:25.380Z,9.18
2022-07-26T12:33:04.154Z,8.95
2022-07-26T12:35:36.133Z,7.60
2022-07-26T12:38:03.199Z,14.00
2022-07-26T12:40:30.990Z,8.50
2022-07-26T12:43:02.825Z,11.13
2022-07-26T12:49:20.668Z,7.57
2022-07-26T12:51:46.911Z,8.45
2022-07-26T12:54:13.509Z,11.45
2022-07-26T12:56:58.974Z,10.02
2022-07-26T12:59:25.269Z,9.43
2022-07-26T13:01:52.241Z,10.82
2022-07-26T13:04:18.474Z,7.90
2022-07-26T13:06:44.635Z,12.63
2022-07-26T13:09:11.001Z,10.65
2022-07-26T13:11:37.287Z,9.07
2022-07-26T13:14:03.362Z,7.78
2022-07-26T13:16:29.456Z,12.05
2022-07-26T13:18:55.578Z,10.00
2022-07-26T13:21:23.093Z,11.88
2022-07-26T13:23:49.220Z,11.57
2022-07-26T13:26:15.309Z,11.00
2022-07-26T13:28:42.569Z,16.50
2022-07-26T13:31:08.664Z,10.43
2022-07-26T13:33:38.550Z,10.68
2022-07-26T13:36:04.840Z,9.23
2022-07-26T13:38:33.648Z,7.57
2022-07-26T13:41:01.611Z,8.57
2022-07-26T13:43:30.364Z,11.93
2022-07-26T13:45:57.702Z,10.10
2022-07-26T13:48:23.846Z,8.35
2022-07-26T13:50:53.645Z,7.22
2022-07-26T13:53:22.159Z,7.55
2022-07-26T13:55:48.276Z,14.05
2022-07-26T13:58:14.374Z,10.98
2022-07-26T14:00:41.231Z,5.93
2022-07-26T14:03:08.242Z,7.78
2022-07-26T14:05:34.542Z,7.63
2022-07-26T14:08:00.693Z,5.88
2022-07-26T14:10:26.897Z,7.15
2022-07-26T14:12:53.176Z,8.73
2022-07-26T14:15:22.606Z,6.53
2022-07-26T14:17:51.495Z,9.60
2022-07-26T14:20:18.387Z,9.82
2022-07-26T14:22:45.194Z,7.82
2022-07-26T14:25:11.720Z,5.13
2022-07-26T14:27:38.341Z,8.02
2022-07-26T14:30:05.326Z,9.40
2022-07-26T14:32:31.488Z,6.90
2022-07-26T14:34:57.641Z,5.47
2022-07-26T14:37:42.678Z,7.28
2022-07-26T14:40:11.652Z,3.28
2022-07-26T14:42:37.817Z,8.00
2022-07-26T14:45:04.784Z,7.95
2022-07-26T14:47:30.952Z,10.80
2022-07-26T14:49:57.099Z,3.97
2022-07-26T14:52:23.314Z,10.27
2022-07-26T14:54:49.435Z,6.97
2022-07-26T14:57:15.614Z,6.95
2022-07-26T14:59:41.771Z,5.35
2022-07-26T15:02:09.918Z,5.43
2022-07-26T15:04:36.079Z,7.65
2022-07-26T15:07:02.245Z,4.10
2022-07-26T15:09:28.447Z,4.90
2022-07-26T15:11:54.559Z,5.25
2022-07-26T15:14:20.852Z,10.82
2022-07-26T15:16:48.662Z,10.20
2022-07-26T15:19:14.943Z,8.20
2022-07-26T15:21:41.158Z,6.32
2022-07-26T15:24:10.946Z,10.00
2022-07-26T15:26:37.969Z,7.68
2022-07-26T15:29:04.253Z,9.98
2022-07-26T15:31:37.434Z,7.47
2022-07-26T15:34:06.724Z,5.80
2022-07-26T15:36:32.850Z,10.38
2022-07-26T15:39:05.292Z,7.10
2022-07-26T15:41:42.047Z,5.70
2022-07-26T15:44:09.961Z,9.48
2022-07-26T15:46:38.399Z,7.28
2022-07-26T15:49:06.700Z,4.20
2022-07-26T15:51:33.211Z,9.30
2022-07-26T15:53:59.593Z,8.27
2022-07-26T15:56:25.825Z,4.00
2022-07-26T15:58:51.986Z,6.50
2022-07-26T16:01:21.361Z,5.03
2022-07-26T16:03:47.568Z,11.43
2022-07-26T16:06:13.813Z,6.38
2022-07-26T16:08:58.934Z,6.32
2022-07-26T16:11:27.824Z,6.85
2022-07-26T16:14:01.699Z,10.68
2022-07-26T16:16:29.812Z,6.63
2022-07-26T16:18:56.095Z,8.93
2022-07-26T16:21:22.390Z,4.30
2022-07-26T16:23:50.198Z,8.80
2022-07-26T16:26:18.485Z,4.18
2022-07-26T16:28:45.295Z,5.20
2022-07-26T16:31:11.537Z,7.25
2022-07-26T16:33:37.712Z,9.82
2022-07-26T16:36:11.981Z,4.00
2022-07-26T16:38:38.140Z,9.65
2022-07-26T16:41:04.341Z,8.25
2022-07-26T16:43:30.726Z,9.20
2022-07-26T16:45:57.285Z,9.18
2022-07-26T16:48:23.846Z,4.47
2022-07-26T16:50:49.925Z,9.40
2022-07-26T16:53:16.166Z,10.32
2022-07-26T16:55:44.184Z,5.70
2022-07-26T16:58:10.303Z,4.28
2022-07-26T17:00:37.184Z,5.95
2022-07-26T17:03:03.442Z,10.25
2022-07-26T17:05:29.736Z,8.93
2022-07-26T17:07:55.862Z,7.00
2022-07-26T17:10:24.362Z,9.20
2022-07-26T17:12:50.570Z,6.30
2022-07-26T17:15:17.191Z,6.78
2022-07-26T17:17:48.388Z,9.00
2022-07-26T17:20:15.626Z,9.75
2022-07-26T17:22:41.829Z,7.97
2022-07-26T17:25:08.106Z,8.95
2022-07-26T17:27:34.969Z,10.00
2022-07-26T17:30:07.142Z,7.32
2022-07-26T17:32:34.049Z,7.47
2022-07-26T17:35:00.410Z,7.90
2022-07-26T17:37:26.795Z,8.25
2022-07-26T17:39:54.981Z,10.73
2022-07-26T17:42:24.198Z,6.13
2022-07-26T17:44:50.742Z,5.72
2022-07-26T17:47:28.560Z,5.85
2022-07-26T17:50:13.909Z,6.13
2022-07-26T17:52:45.247Z,6.35
2022-07-26T17:55:11.421Z,7.10
2022-07-26T17:57:38.017Z,4.20
2022-07-26T18:00:06.740Z,4.68
2022-07-26T18:02:33.128Z,5.40
2022-07-26T18:04:59.289Z,6.07
2022-07-26T18:07:25.848Z,7.60
2022-07-26T18:09:51.981Z,5.28
2022-07-26T18:12:18.117Z,6.88
2022-07-26T18:14:44.224Z,7.25
2022-07-26T18:17:10.393Z,5.10
2022-07-26T18:19:36.491Z,6.05
2022-07-26T18:22:05.886Z,6.47
2022-07-26T18:24:32.526Z,6.80
2022-07-26T18:26:58.570Z,8.38
2022-07-26T18:29:24.762Z,4.72
2022-07-26T18:31:55.199Z,6.32
2022-07-26T18:34:21.361Z,7.40
2022-07-26T18:36:47.416Z,3.42
2022-07-26T18:39:13.957Z,7.05
2022-07-26T18:41:40.455Z,3.50
2022-07-26T18:44:06.550Z,11.05
2022-07-26T18:46:33.573Z,6.78
2022-07-26T18:49:00.178Z,2.85
2022-07-26T18:51:26.731Z,4.53
2022-07-26T18:53:53.386Z,4.30
2022-07-26T18:56:19.797Z,4.68
2022-07-26T18:58:46.234Z,5.47
2022-07-26T19:01:12.390Z,7.13
2022-07-26T19:03:38.568Z,5.32
2022-07-26T19:06:05.228Z,5.93
2022-07-26T19:08:31.444Z,4.82
2022-07-26T19:10:57.637Z,7.13
2022-07-26T19:13:23.810Z,9.05
2022-07-26T19:15:50.456Z,8.30
2022-07-26T19:18:17.164Z,4.57
2022-07-26T19:20:46.517Z,10.25
2022-07-26T19:23:12.774Z,3.05
2022-07-26T19:25:39.801Z,5.65
2022-07-26T19:28:06.534Z,4.82
2022-07-26T19:30:35.816Z,9.93
2022-07-26T19:33:02.112Z,5.95
2022-07-26T19:35:28.313Z,9.98
2022-07-26T19:37:54.567Z,9.23
2022-07-26T19:40:21.435Z,4.68
2022-07-26T19:42:50.638Z,3.28
2022-07-26T19:45:17.252Z,7.97
2022-07-26T19:47:43.694Z,6.60
2022-07-26T19:50:15.693Z,2.95
2022-07-26T19:52:41.867Z,5.45
2022-07-26T19:55:08.953Z,5.47
2022-07-26T19:57:35.263Z,4.90
2022-07-26T20:00:03.852Z,5.07
2022-07-26T20:02:30.259Z,7.90
2022-07-26T20:04:56.730Z,5.10
2022-07-26T20:07:22.932Z,4.93
2022-07-26T20:09:50.383Z,3.38
2022-07-26T20:12:17.957Z,3.00
2022-07-26T20:14:45.374Z,5.35
2022-07-26T20:17:13.055Z,3.42
2022-07-26T20:19:40.366Z,5.38
2022-07-26T20:22:06.659Z,4.65
2022-07-26T20:24:32.811Z,7.43
2022-07-26T20:26:59.562Z,3.47
2022-07-26T20:29:25.915Z,4.53
2022-07-26T20:31:52.197Z,4.10
2022-07-26T20:34:23.646Z,7.03
2022-07-26T20:39:15.922Z,4.63
2022-07-26T20:49:48.162Z,3.78
2022-07-26T20:52:14.402Z,3.70
2022-07-26T20:54:40.578Z,3.72
2022-07-26T20:57:06.719Z,5.80
2022-07-26T20:59:34.284Z,6.50
2022-07-26T21:02:00.524Z,3.03
2022-07-26T21:04:26.676Z,4.18
2022-07-26T21:06:52.811Z,3.42
2022-07-26T21:09:19.106Z,6.03
2022-07-26T21:11:45.225Z,3.55
2022-07-26T21:14:12.071Z,7.50
2022-07-26T21:16:38.255Z,4.68
2022-07-26T21:19:05.406Z,2.92
2022-07-26T21:21:33.379Z,2.83
2022-07-26T21:23:59.553Z,6.80
2022-07-26T21:26:25.678Z,2.53
2022-07-26T21:28:51.791Z,2.22
2022-07-26T21:31:18.162Z,4.10
2022-07-26T21:33:44.654Z,4.05
2022-07-26T21:36:10.842Z,7.30
2022-07-26T21:38:37.054Z,6.55
2022-07-26T21:41:03.125Z,2.85
2022-07-26T21:43:29.437Z,4.97
2022-07-26T21:45:55.988Z,3.22
2022-07-26T21:48:23.806Z,3.60
2022-07-26T21:50:50.313Z,4.22
2022-07-26T21:53:16.451Z,7.75
2022-07-26T21:55:42.721Z,9.38
2022-07-26T21:58:08.929Z,3.45
2022-07-26T22:00:36.061Z,8.82
2022-07-26T22:03:02.925Z,5.57
2022-07-26T22:05:34.767Z,4.65
2022-07-26T22:08:01.593Z,6.38
2022-07-26T22:10:28.078Z,6.15
2022-07-26T22:12:54.133Z,3.90
2022-07-26T22:15:21.339Z,5.05
2022-07-26T22:17:47.736Z,2.92
2022-07-26T22:20:14.514Z,5.97
2022-07-26T22:22:40.993Z,6.55
2022-07-26T22:25:07.524Z,3.80
2022-07-26T22:27:33.626Z,5.30
2022-07-26T22:29:59.776Z,3.90
2022-07-26T22:32:26.738Z,3.83
2022-07-26T22:34:52.775Z,3.58
2022-07-26T22:37:18.889Z,8.55
2022-07-26T22:39:44.922Z,6.13
2022-07-26T22:42:15.789Z,7.15
2022-07-26T22:44:42.334Z,5.20
2022-07-26T22:47:08.889Z,3.83
2022-07-26T22:49:35.359Z,3.42
2022-07-26T22:52:01.474Z,3.80
2022-07-26T22:54:27.880Z,6.38
2022-07-26T22:56:54.269Z,4.63
2022-07-26T22:59:21.823Z,4.60
2022-07-26T23:01:48.294Z,7.47
2022-07-26T23:04:14.538Z,3.95
2022-07-26T23:06:40.653Z,4.78
2022-07-26T23:09:06.851Z,4.45
2022-07-26T23:11:32.900Z,2.70
2022-07-26T23:14:00.183Z,3.92
2022-07-26T23:16:26.732Z,6.47
2022-07-26T23:18:53.178Z,6.78
2022-07-26T23:21:19.349Z,6.07
2022-07-26T23:23:45.406Z,8.73
2022-07-26T23:26:11.455Z,7.93
2022-07-26T23:28:38.519Z,3.35
2022-07-26T23:31:10.399Z,6.70
2022-07-26T23:33:53.326Z,5.68
2022-07-26T23:36:24.668Z,8.57
2022-07-26T23:38:51.311Z,3.57
2022-07-26T23:41:18.393Z,6.70
2022-07-26T23:43:44.477Z,8.30
2022-07-26T23:46:10.658Z,5.82
2022-07-26T23:48:37.042Z,6.95
2022-07-26T23:51:03.212Z,4.22
2022-07-26T23:53:29.517Z,3.50
2022-07-26T23:55:55.634Z,5.10
2022-07-26T23:58:21.777Z,6.35
